This is the latest recevied weather packets stored in our database for station/object EA4BHK-10. If no packets are shown the sender has not sent any weather packets the latest 1 day(s).
| Time | Temp. | Humidity | Pressure | Rain* | Wind** | Luminosity | Snow |
|---|---|---|---|---|---|---|---|
| 1778081979 | 19.44° C | 28% | 1009.2 hPa | - | - | - | - |
| 1778065779 | 18.89° C | 30% | 1012 hPa | - | - | - | - |
| 1778063080 | 17.22° C | 33% | 1012.7 hPa | - | - | - | - |
| 1778062178 | 16.67° C | 34% | 1013.2 hPa | - | - | - | - |
| 1778060378 | 14.44° C | 40% | 1014 hPa | - | - | - | - |
| 1778058578 | 14.44° C | 44% | 1013.9 hPa | - | - | - | - |
| 1778057678 | 14.44° C | 45% | 1013.9 hPa | - | - | - | - |
| 1778056778 | 12.78° C | 48% | 1014.5 hPa | - | - | - | - |
| 1778055878 | 12.22° C | 53% | 1015 hPa | - | - | - | - |
| 1778054978 | 11.11° C | 58% | 1015.3 hPa | - | - | - | - |
| 1778054078 | 10° C | 60% | 1015.8 hPa | - | - | - | - |
| 1778053178 | 9.44° C | 62% | 1016.1 hPa | - | - | - | - |
| 1778050478 | 6.67° C | 70% | 1017.3 hPa | - | - | - | - |
| 1778049578 | 5.56° C | 72% | 1017.7 hPa | - | - | - | - |
| 1778047778 | 5° C | 75% | 1017.9 hPa | - | - | - | - |
| 1778046878 | 4.44° C | 76% | 1018.3 hPa | - | - | - | - |
| 1778042373 | 4.44° C | 75% | 1017.8 hPa | - | - | - | - |
| 1778041473 | 4.44° C | 76% | 1017.9 hPa | - | - | - | - |
| 1778039680 | 4.44° C | 76% | 1017.7 hPa | - | - | - | - |
| 1778037880 | 5° C | 75% | 1017.7 hPa | - | - | - | - |
| 1778036974 | 5° C | 76% | 1017.7 hPa | - | - | - | - |
| 1778036188 | 5° C | 75% | 1017.5 hPa | - | - | - | - |
| 1778036077 | 5° C | 75% | 1017.5 hPa | - | - | - | - |
| 1778035180 | 5° C | 76% | 1017.6 hPa | - | - | - | - |
| 1778033720 | 5.56° C | 74% | 1017.4 hPa | - | - | - | - |
* Rain since midnight (hover to see other rain measurements)
** Current wind speed in m/s (hover to see current wind gust speed)